HRYR

Kigali International Airport

Kigali, Rwanda
METAR HRYR 212200Z 33002KT 9999 FEW026 SCT100 20/14 Q1022 NOSIG
Observed Flight Rules
Aug-21 @ 22:00 UTC (2 hours ago) Visual Flight Rules
Wind Visibility Clouds
330° at 2 knots 10,000+ meters
  • Few at 2,600' AGL
  • Scattered at 10,000' AGL
Temperatures Readings
Current 20°C / 68°F
Dewpoint 14°C / 57°F
Humidity 69%
Altimeter 30.18" Hg
Pressure 1022 hPa
Elevation 1497
METAR HRYR 212200Z 33002KT 9999 FEW026 SCT100 20/14 Q1022 NOSIG
Observed Flight Rules
Aug-21 @ 22:00 UTC
(2 hours ago)
VFR
Wind Visibility
330° at 2 knots 10,000+ meters
Clouds
  • Few at 2,600' AGL
  • Scattered at 10,000' AGL
Temperature Dewpoint
20°C / 68°F 14°C / 57°F
Humidity Altimeter Pressure
69% 30.18" Hg 1022 hPa